createdAt,value
2022-10-04T00:00:25.987Z,8.29
2022-10-04T00:05:57.734Z,8.24
2022-10-04T00:11:29.547Z,8.19
2022-10-04T00:17:04.134Z,8.16
2022-10-04T00:22:35.834Z,8.09
2022-10-04T00:28:07.740Z,8.08
2022-10-04T00:33:39.445Z,8.05
2022-10-04T00:39:11.170Z,7.98
2022-10-04T00:44:42.889Z,7.96
2022-10-04T00:50:14.899Z,7.91
2022-10-04T00:55:53.567Z,7.87
2022-10-04T01:01:25.684Z,7.84
2022-10-04T01:06:57.267Z,7.80
2022-10-04T01:12:29.083Z,7.74
2022-10-04T01:18:02.069Z,7.71
2022-10-04T01:23:32.898Z,7.66
2022-10-04T01:29:04.816Z,7.61
2022-10-04T01:34:36.684Z,7.57
2022-10-04T01:40:08.463Z,7.57
2022-10-04T01:51:12.108Z,7.49
2022-10-04T01:56:43.880Z,7.41
2022-10-04T02:02:15.552Z,7.41
2022-10-04T02:07:47.371Z,7.41
2022-10-04T02:18:51.520Z,7.38
2022-10-04T02:35:24.781Z,7.24
2022-10-04T02:40:56.730Z,7.24
2022-10-04T02:46:28.409Z,7.16
2022-10-04T02:52:00.308Z,7.15
2022-10-04T02:57:32.254Z,7.05
2022-10-04T03:03:03.979Z,7.03
2022-10-04T03:10:57.319Z,0.00
2022-10-04T03:16:28.888Z,6.98
2022-10-04T03:22:00.583Z,6.97
2022-10-04T03:27:32.290Z,6.91
2022-10-04T03:33:04.274Z,6.91
2022-10-04T03:38:35.951Z,6.87
2022-10-04T03:44:07.636Z,6.84
2022-10-04T03:55:11.419Z,6.79
2022-10-04T04:00:43.265Z,6.79
2022-10-04T04:06:14.889Z,6.76
2022-10-04T04:11:46.671Z,6.72
2022-10-04T04:17:18.181Z,6.70
2022-10-04T04:22:50.108Z,6.70
2022-10-04T04:28:22.021Z,6.63
2022-10-04T04:33:53.869Z,6.61
2022-10-04T04:39:25.663Z,6.59
2022-10-04T04:44:57.508Z,6.61
2022-10-04T04:50:29.371Z,6.66
2022-10-04T04:56:05.040Z,6.66
2022-10-04T05:01:32.970Z,6.65
2022-10-04T05:07:04.738Z,6.63
2022-10-04T05:12:36.606Z,6.59
2022-10-04T05:18:08.647Z,6.59
2022-10-04T05:29:09.681Z,6.72
2022-10-04T05:34:41.431Z,6.90
2022-10-04T05:40:12.964Z,6.98
2022-10-04T05:45:45.022Z,7.53
2022-10-04T05:51:16.665Z,7.94
2022-10-04T05:56:48.528Z,8.44
2022-10-04T06:02:20.241Z,8.59
2022-10-04T06:07:52.045Z,8.92
2022-10-04T06:18:53.195Z,10.61
2022-10-04T06:24:26.948Z,10.70
2022-10-04T06:29:56.779Z,10.56
2022-10-04T06:37:50.449Z,10.44
2022-10-04T06:48:51.812Z,10.59
2022-10-04T06:54:23.492Z,10.67
2022-10-04T06:59:54.928Z,10.91
2022-10-04T07:05:26.328Z,11.09
2022-10-04T07:10:58.170Z,11.57
2022-10-04T07:16:30.072Z,11.81
2022-10-04T07:22:01.756Z,12.54
2022-10-04T07:33:03.408Z,14.20
2022-10-04T07:38:34.952Z,14.58
2022-10-04T07:44:06.733Z,15.13
2022-10-04T07:49:38.478Z,15.41
2022-10-04T07:55:10.337Z,16.58
2022-10-04T08:00:42.102Z,17.05
2022-10-04T08:06:13.908Z,17.65
2022-10-04T08:11:45.609Z,18.07
2022-10-04T08:17:17.301Z,18.65
2022-10-04T08:22:49.271Z,18.99
2022-10-04T08:28:20.910Z,19.29
2022-10-04T08:33:52.561Z,19.40
2022-10-04T08:39:24.019Z,19.47
2022-10-04T08:44:55.770Z,19.42
2022-10-04T08:50:27.144Z,19.34
2022-10-04T08:55:58.407Z,19.34
2022-10-04T09:01:30.085Z,19.33
2022-10-04T09:07:01.953Z,19.34
2022-10-04T09:12:34.592Z,19.38
2022-10-04T09:18:06.267Z,19.38
2022-10-04T09:23:38.019Z,19.19
2022-10-04T09:34:41.503Z,18.68
2022-10-04T09:40:15.320Z,18.43
2022-10-04T09:45:46.766Z,18.41
2022-10-04T09:51:18.579Z,18.40
2022-10-04T09:56:50.417Z,18.33
2022-10-04T10:02:22.163Z,18.30
2022-10-04T10:07:53.940Z,18.33
2022-10-04T10:13:28.846Z,18.24
2022-10-04T10:18:57.622Z,18.28
2022-10-04T10:24:29.184Z,18.41
2022-10-04T10:30:00.416Z,18.30
2022-10-04T10:35:31.940Z,18.30
2022-10-04T10:46:35.728Z,18.12
2022-10-04T10:52:07.424Z,18.13
2022-10-04T10:57:39.501Z,18.21
2022-10-04T11:03:13.776Z,18.35
2022-10-04T11:08:42.753Z,18.61
2022-10-04T11:14:14.864Z,18.79
2022-10-04T11:25:17.708Z,19.22
2022-10-04T11:36:21.334Z,19.55
2022-10-04T11:41:53.086Z,19.45
2022-10-04T11:47:24.795Z,19.45
2022-10-04T11:52:56.610Z,19.51
2022-10-04T11:58:28.159Z,19.59
2022-10-04T12:03:59.882Z,19.47
2022-10-04T12:09:33.498Z,19.42
2022-10-04T12:15:05.470Z,19.61
2022-10-04T12:20:37.234Z,19.68
2022-10-04T12:26:09.087Z,19.78
2022-10-04T12:31:41.022Z,19.83
2022-10-04T12:37:12.675Z,20.05
2022-10-04T12:42:44.431Z,20.03
2022-10-04T12:48:16.085Z,19.99
2022-10-04T12:53:48.127Z,19.90
2022-10-04T13:04:51.563Z,19.58
2022-10-04T13:10:24.980Z,19.30
2022-10-04T13:21:26.896Z,18.96
2022-10-04T13:26:58.810Z,18.95
2022-10-04T13:32:30.542Z,18.90
2022-10-04T13:38:02.213Z,18.83
2022-10-04T13:43:34.026Z,18.79
2022-10-04T13:49:05.872Z,18.79
2022-10-04T13:54:37.670Z,18.76
2022-10-04T14:00:09.852Z,18.76
2022-10-04T14:05:41.819Z,18.79
2022-10-04T14:11:13.495Z,18.83
2022-10-04T14:22:14.931Z,18.87
2022-10-04T14:27:46.763Z,18.96
2022-10-04T14:38:50.200Z,19.03
2022-10-04T14:44:24.426Z,19.05
2022-10-04T14:50:00.725Z,19.03
2022-10-04T14:55:30.316Z,19.00
2022-10-04T15:01:02.559Z,19.05
2022-10-04T15:06:34.526Z,19.13
2022-10-04T15:12:29.494Z,19.13
2022-10-04T15:17:40.623Z,19.16
2022-10-04T15:23:12.287Z,19.10
2022-10-04T15:34:17.378Z,18.89
2022-10-04T15:39:49.339Z,18.75
2022-10-04T15:45:21.178Z,18.65
2022-10-04T15:50:52.690Z,18.46
2022-10-04T15:56:24.388Z,18.40
2022-10-04T16:01:56.663Z,18.23
2022-10-04T16:07:28.117Z,18.16
2022-10-04T16:12:59.871Z,18.04
2022-10-04T16:18:31.726Z,17.97
2022-10-04T16:24:03.208Z,17.84
2022-10-04T16:29:35.021Z,17.75
2022-10-04T16:35:07.006Z,17.55
2022-10-04T16:40:38.731Z,17.45
2022-10-04T16:46:10.614Z,17.27
2022-10-04T16:51:42.276Z,17.13
2022-10-04T16:57:13.991Z,16.89
2022-10-04T17:02:45.913Z,16.74
2022-10-04T17:08:19.686Z,16.41
2022-10-04T17:13:55.672Z,16.23
2022-10-04T17:19:23.267Z,15.96
2022-10-04T17:24:55.037Z,15.82
2022-10-04T17:30:26.955Z,15.64
2022-10-04T17:35:58.713Z,15.54
2022-10-04T17:41:30.526Z,15.37
2022-10-04T17:47:02.225Z,15.29
2022-10-04T17:52:34.097Z,15.10
2022-10-04T17:58:06.143Z,15.00
2022-10-04T18:03:38.070Z,14.85
2022-10-04T18:09:09.926Z,14.71
2022-10-04T18:14:41.571Z,14.57
2022-10-04T18:20:13.472Z,14.51
2022-10-04T18:25:45.338Z,14.34
2022-10-04T18:31:20.241Z,14.26
2022-10-04T18:36:51.960Z,14.10
2022-10-04T18:42:23.640Z,14.02
2022-10-04T18:47:55.644Z,13.88
2022-10-04T18:53:27.395Z,13.81
2022-10-04T18:58:58.970Z,13.71
2022-10-04T19:04:30.900Z,13.64
2022-10-04T19:10:02.816Z,13.51
2022-10-04T19:15:34.561Z,13.47
2022-10-04T19:21:06.522Z,13.33
2022-10-04T19:26:38.176Z,13.29
2022-10-04T19:32:09.789Z,13.25
2022-10-04T19:37:41.797Z,13.13
2022-10-04T19:43:13.510Z,13.03
2022-10-04T19:48:45.371Z,12.89
2022-10-04T19:50:57.176Z,12.79
2022-10-04T19:56:28.507Z,12.75
2022-10-04T20:07:29.400Z,12.60
2022-10-04T20:13:01.455Z,12.54
2022-10-04T20:18:33.214Z,12.39
2022-10-04T20:20:56.914Z,12.30
2022-10-04T20:26:28.417Z,12.26
2022-10-04T20:32:00.235Z,12.10
2022-10-04T20:37:31.563Z,11.99
2022-10-04T20:43:03.321Z,11.84
2022-10-04T20:48:34.723Z,11.80
2022-10-04T20:54:06.517Z,11.71
2022-10-04T20:59:38.331Z,11.64
2022-10-04T21:05:10.043Z,11.61
2022-10-04T21:10:41.779Z,11.49
2022-10-04T21:16:13.162Z,11.42
2022-10-04T21:21:45.035Z,11.33
2022-10-04T21:27:17.745Z,11.26
2022-10-04T21:32:49.575Z,11.12
2022-10-04T21:38:21.363Z,11.09
2022-10-04T21:43:52.985Z,10.95
2022-10-04T21:49:24.883Z,10.91
2022-10-04T21:54:56.874Z,10.85
2022-10-04T22:00:28.846Z,10.82
2022-10-04T22:06:00.720Z,10.74
2022-10-04T22:11:32.502Z,10.71
2022-10-04T22:17:04.076Z,10.63
2022-10-04T22:22:39.783Z,10.59
2022-10-04T22:28:11.923Z,10.53
2022-10-04T22:39:17.506Z,10.46
2022-10-04T22:44:51.710Z,10.43
2022-10-04T22:50:23.440Z,10.43
2022-10-04T22:55:55.446Z,10.39
2022-10-04T23:01:28.007Z,10.30
2022-10-04T23:06:59.854Z,10.27
2022-10-04T23:12:31.667Z,10.18
2022-10-04T23:18:03.583Z,10.12
2022-10-04T23:23:35.147Z,10.04
2022-10-04T23:29:09.160Z,9.99
2022-10-04T23:34:40.765Z,9.91
2022-10-04T23:40:12.268Z,9.87
2022-10-04T23:45:44.064Z,9.82
2022-10-04T23:51:15.758Z,9.80
2022-10-04T23:56:47.973Z,9.77
